Weather observations for the past three days for
William M Tuck Airport
Metric (Imperial)
Date Time (edt) Wind (kph) Vis. (km) Weather Sky Cond. Temperature (ºC) Relative Humidity Wind Chill (°C) Heat Index (°C) Pressure Precipitation (cm)
Air Dwpt 6 hour altimeter (cm) sea level (mb) 1 hr 3 hr 6 hr
Max. Min.
04 06:55 SW 6 16.09 Fair CLR 23.8 21.4 86% 76.2 0.0
04 06:35 Calm 16.09 Fair CLR 23.6 21.5 88% 76.2 0.0
04 06:15 Calm 16.09 Fair CLR 24.1 21.4 85% 24 76.17 0.0
04 05:55 Calm 16.09 Fair CLR 24.7 21.5 82% 25 76.17 0.0
04 05:35 Calm 16.09 Fair CLR 25.1 21.6 81% 26 76.17 0.0
04 05:15 SW 7 16.09 Fair CLR 25.5 21.6 79% 27 76.17 0.0
04 04:55 SW 6 16.09 Fair CLR 25.4 21.6 80% 27 76.17 0.0
04 04:35 SW 7 16.09 Fair CLR 26 21.7 77% 28 76.15 0.0
04 04:15 SW 9 16.09 Fair CLR 26.5 21.7 75% 28 76.15 0.0
04 03:55 SW 9 16.09 Fair CLR 26.6 21.8 75% 29 76.12 0.0
04 03:35 SW 9 16.09 Fair CLR 26.6 21.8 75% 29 76.12 0.0
04 03:15 SW 9 16.09 Fair CLR 27 21.7 73% 29 76.12 0.0
04 02:55 SW 11 16.09 Fair CLR 27.2 21.7 72% 29 76.12 0.0
04 02:35 SW 11 16.09 Fair CLR 27 21.7 73% 29 76.15 0.0
04 02:15 SW 9 16.09 Fair CLR 27 21.6 72% 29 76.17 0.0
04 01:55 SW 7 16.09 Fair CLR 26.3 21.5 31.6 24.5 75% 28 76.2 0.0
04 01:35 SW 6 16.09 Fair CLR 25.3 21.2 78% 26 76.23 0.0
04 01:15 SW 6 16.09 Fair CLR 24.7 21.2 81% 25 76.25 0.0
04 00:55 Calm 16.09 Fair CLR 25.5 21.1 77% 27 76.25 0.0
04 00:35 Calm 16.09 Fair CLR 25.7 20.9 75% 27 76.25 0.0
04 00:15 Calm 16.09 Fair CLR 27 20.7 68% 29 76.25 0.0
03 23:55 SW 6 16.09 Fair CLR 26.2 20.8 72% 28 76.23 0.0
03 23:35 SW 7 16.09 Fair CLR 26.8 20.5 68% 28 76.23 0.0
03 23:15 SW 6 16.09 Fair CLR 25.7 20.8 74% 27 76.23 0.0
03 22:55 Calm 16.09 Fair CLR 27.5 20.4 65% 29 76.23 0.0
03 22:15 Calm 16.09 Fair CLR 26.6 21.4 73% 28 76.23 0.0
03 21:55 Calm 16.09 Fair CLR 27.1 21.2 70% 29 76.23 0.0
03 21:35 Calm 16.09 Fair CLR 27.2 21.5 71% 29 76.23 0.0
03 21:15 Calm 16.09 Partly Cloudy SCT080 28.1 20.8 65% 30 76.23 0.0
03 20:55 Calm 16.09 Partly Cloudy SCT080 28.9 20.2 59% 31 76.2 0.0
03 20:35 Calm 16.09 Fair CLR 31.1 19.6 50% 33 76.17 0.0
03 19:55 S 6 16.09 Fair CLR 32 19.2 38.1 32 47% 34 76.1 0.0
03 19:35 S 9 16.09 Fair CLR 32.6 19.3 45% 34 76.1 0.0
03 19:15 S 9 16.09 Partly Cloudy SCT080 34 19.4 42% 36 76.1 0.0
03 18:55 S 7 16.09 Partly Cloudy SCT080 34.8 19.5 41% 37 76.07 0.0
03 18:35 S 6 16.09 Fair CLR 35.3 19.3 39% 37 76.07 0.0
03 18:15 S 7 16.09 Fair CLR 36.1 19 37% 38 76.1 0.0
03 17:55 S 6 16.09 Fair CLR 36 19 37% 38 76.1 0.0
03 17:35 Calm 16.09 Fair CLR 36.2 19.1 37% 38 76.1 0.0
03 17:15 S 6 16.09 Fair CLR 36.7 18.6 34% 39 76.1 0.0
03 16:55 Calm 16.09 Fair CLR 35.6 18.2 36% 37 76.1 0.0
03 16:35 S 7 16.09 Fair CLR 37 17.7 32% 38 76.12 0.0
03 16:15 Calm 16.09 Fair CLR 37.3 17.5 31% 39 76.15 0.0
03 15:55 S 6 16.09 Fair CLR 37.5 18 32% 39 76.17 0.0
03 15:35 S 7 16.09 Fair CLR 37.5 17.9 31% 39 76.17 0.0
03 15:15 SE 7 16.09 Fair CLR 37.7 17.8 31% 39 76.2 0.0
03 14:55 SE 6 16.09 Fair CLR 37 17.3 31% 38 76.23 0.0
03 14:35 S 7 16.09 Fair CLR 37 18.1 33% 39 76.23 0.0
03 14:15 Calm 16.09 Fair CLR 37 17.9 32% 38 76.25 0.0
03 13:55 S 6 16.09 Partly Cloudy SCT060 36.1 17.9 36.7 23.1 34% 37 76.25 0.0
03 13:35 N 9 16.09 Mostly Cloudy BKN060 35.5 19.1 38% 38 76.28 0.0
03 13:15 Calm 16.09 Partly Cloudy SCT060 36.3 19.5 37% 39 76.3 0.0
03 12:55 N 6 16.09 Fair CLR 35.6 19.5 39% 38 76.3 0.0
03 12:35 NW 6 16.09 Fair CLR 35.5 20 40% 38 76.33 0.0
03 12:15 Calm 16.09 Fair CLR 35.3 20.2 41% 38 76.33 0.0
03 11:55 NW 11 16.09 Fair CLR 34.6 20.3 43% 37 76.35 0.0
03 11:35 N 6 16.09 Fair CLR 33.8 19.9 44% 36 76.35 0.0
03 11:15 W 6 16.09 Fair CLR 32.9 21.1 50% 36 76.38 0.0
03 10:55 Calm 16.09 Fair CLR 32.2 21.2 52% 35 76.38 0.0
03 10:35 Calm 16.09 Fair CLR 31 20.9 55% 34 76.38 0.0
03 10:15 Calm 16.09 Fair CLR 29.8 21.4 61% 33 76.38 0.0
03 09:55 NW 6 16.09 Fair CLR 29 21.4 64% 32 76.38 0.0
03 09:35 Calm 16.09 Fair CLR 27.5 21 68% 29 76.38 0.0
03 09:15 Calm 16.09 Fair CLR 26.6 20.8 71% 28 76.38 0.0
03 08:55 Calm 16.09 Fair CLR 25.4 20.6 75% 27 76.38 0.0
03 08:35 Calm 16.09 Fair CLR 24.7 20.6 78% 25 76.4 0.0
03 08:15 Calm 16.09 Fair CLR 23.8 20.6 82% 76.4 0.0
03 07:55 Calm 16.09 Fair CLR 22.8 20.8 22.8 20.6 89% 76.4 0.0
03 07:35 Calm 16.09 Fair CLR 21.7 20.2 91% 76.38 0.0
03 07:15 Calm 16.09 Fair CLR 21 19.9 93% 76.38 0.0
03 06:55 Calm 11.27 Fair CLR 20.9 20 95% 76.35 0.0
03 06:35 Calm 16.09 Fair CLR 21.1 19.9 93% 76.33 0.0
03 06:15 Calm 16.09 Fair CLR 21.2 20.4 95% 76.33 0.0
03 05:55 Calm 11.27 Fair CLR 21 20 94% 76.3 0.0
03 05:15 Calm 16.09 Fair CLR 21.2 19.9 92% 76.3 0.0
03 04:55 Calm 16.09 Fair CLR 21.6 20 91% 76.3 0.0
03 04:35 Calm 16.09 Fair CLR 21.3 19.8 91% 76.3 0.0
03 04:15 Calm 16.09 Fair CLR 21.8 19.8 88% 76.3 0.0
03 03:55 Calm 16.09 Fair CLR 22.5 20.1 86% 76.3 0.0
03 03:35 N 6 16.09 Fair CLR 22.6 20.3 87% 76.3 0.0
03 03:15 Calm 16.09 Fair CLR 22.1 20.2 89% 76.28 0.0
03 02:55 Calm 16.09 Fair CLR 22 20.2 90% 76.28 0.0
03 02:35 Calm 16.09 Fair CLR 22.1 19.7 86% 76.28 0.0
03 02:15 Calm 16.09 Fair CLR 22.1 19.9 87% 76.3 0.0
03 01:55 Calm 16.09 Fair CLR 22.5 19.9 30 22.5 85% 76.3 0.0
03 01:35 Calm 16.09 Fair CLR 22.7 19.9 84% 76.3 0.0
03 01:15 Calm 16.09 Fair CLR 23.1 20.1 83% 76.3 0.0
03 00:55 Calm 16.09 Fair CLR 23.8 19.8 78% 76.3 0.0
03 00:35 Calm 16.09 Fair CLR 24.2 20 77% 25 76.3 0.0
03 00:15 Calm 16.09 Fair CLR 25 19.6 72% 26 76.3 0.0
02 23:55 Calm 16.09 Fair CLR 25.3 19.7 71% 26 76.3 0.0
02 23:35 Calm 16.09 Fair CLR 26.4 19.3 65% 28 76.33 0.0
02 23:15 Calm 16.09 Fair CLR 26.5 19.6 66% 28 76.3 0.0
02 22:55 E 7 16.09 Fair CLR 26.5 19.7 66% 28 76.33 0.0
02 22:35 Calm 16.09 Fair CLR 26.7 20 67% 28 76.33 0.0
02 22:15 E 7 16.09 Fair CLR 27.5 20 64% 29 76.35 0.0
02 21:55 E 7 16.09 Fair CLR 28.3 20 61% 30 76.35 0.0
02 21:35 SE 7 16.09 Fair CLR 29 20 58% 31 76.35 0.0
02 21:15 E 15 16.09 Fair CLR 29.1 20.1 58% 31 76.35 0.0
02 20:55 Calm 16.09 Fair CLR 27.8 21 67% 30 76.3 0.0
02 20:35 Calm 16.09 Fair CLR 28.3 21.1 65% 31 76.28 0.0
02 20:15 Calm 16.09 Fair CLR 29.3 21.5 63% 32 76.28 0.0
02 19:55 W 7 16.09 Partly Cloudy SCT080 SCT120 30.9 20.7 37.4 30.9 55% 33 76.25 0.0
02 19:35 Calm 16.09 Overcast BKN080 BKN090 OVC120 32.2 19.4 47% 34 76.28 0.0
02 19:15 Calm 16.09 Overcast BKN080 OVC090 33.1 20.4 47% 36 76.28 0.0
02 18:55 S 6 16.09 Overcast OVC090 34 19.3 42% 36 76.28 0.0
02 18:35 E 6 16.09 Overcast OVC090 35.1 18.6 38% 37 76.28 0.0
02 18:15 SE 6 16.09 Mostly Cloudy BKN090 BKN120 35 18.9 39% 37 76.28 0.0
02 17:55 S 6 16.09 Partly Cloudy SCT090 SCT120 36 18.5 36% 38 76.25 0.0
02 17:35 Calm 16.09 Mostly Cloudy BKN090 36.7 17.7 33% 38 76.25 0.0
02 17:15 E 7 16.09 Partly Cloudy SCT100 37.2 17.8 32% 39 76.23 0.0
02 16:55 Calm 16.09 Fair CLR 37.4 17.7 31% 39 76.25 0.0
02 16:35 Calm 16.09 Fair CLR 36.6 17.9 33% 38 76.25 0.0
02 16:15 Calm 16.09 Partly Cloudy SCT075 36.7 17.3 32% 38 76.25 0.0
02 15:55 SE 7 16.09 Partly Cloudy SCT075 36.6 18.1 34% 38 76.28 0.0
02 15:35 S 9 16.09 Fair CLR 36.8 17.7 32% 38 76.3 0.0
02 15:15 E 6 16.09 Fair CLR 36.7 17.5 32% 38 76.3 0.0
02 14:55 Calm 16.09 Fair CLR 35.8 17.4 34% 37 76.33 0.0
02 14:35 S 6 16.09 Partly Cloudy SCT070 36.2 18 34% 38 76.33 0.0
02 14:15 Calm 16.09 Fair CLR 35.9 18.3 35% 37 76.35 0.0
02 13:55 Calm 16.09 Partly Cloudy SCT065 35.6 18.8 35.8 22.4 37% 37 76.35 0.0
02 13:35 Calm 16.09 Partly Cloudy SCT065 35.2 18.5 37% 37 76.35 0.0
02 13:15 S 7 16.09 Fair CLR 35.3 19 38% 37 76.38 0.0
02 12:55 W 6 16.09 Fair CLR 35 18.8 38% 37 76.38 0.0
02 12:35 Calm 16.09 Fair CLR 35 19.3 40% 37 76.4 0.0
02 12:15 Calm 16.09 Fair CLR 34.4 18.9 40% 36 76.43 0.0
02 11:55 Calm 16.09 Fair CLR 33.4 19.6 44% 35 76.43 0.0
02 11:35 Calm 16.09 Fair CLR 33.1 19.8 45% 35 76.43 0.0
02 11:15 Calm 16.09 Fair CLR 32.6 19.2 45% 34 76.43 0.0
02 10:55 Calm 16.09 Fair CLR 32.2 20.3 49% 35 76.45 0.0
02 10:35 Calm 16.09 Fair CLR 31.5 19.7 50% 33 76.43 0.0
02 10:15 Calm 16.09 Fair CLR 31.1 20.7 54% 34 76.43 0.0
02 09:55 Calm 16.09 Fair CLR 29.6 21.4 61% 32 76.43 0.0
02 09:35 Calm 16.09 Fair CLR 29.2 21.1 62% 32 76.43 0.0
02 09:15 Calm 16.09 Fair CLR 28 20.9 65% 30 76.43 0.0
02 08:55 Calm 16.09 Fair CLR 26 21.5 76% 28 76.43 0.0
02 08:35 Calm 16.09 Fair CLR 24.5 21 81% 25 76.43 0.0
02 08:15 Calm 16.09 Fair CLR 23.3 21.3 89% 76.43 0.0
02 07:55 Calm 11.27 Fair CLR 22 21 22.5 20 94% 76.43 0.0
02 07:35 Calm 11.27 Fair CLR 21.1 20.2 95% 76.43 0.0
02 07:15 Calm 11.27 Fair CLR 20.5 19.5 94% 76.43 0.0
02 06:55 Calm 16.09 Fair CLR 20.6 19.7 95% 76.4 0.0
02 06:35 Calm 16.09 Fair CLR 20.7 20 96% 76.38 0.0
02 06:15 Calm 6.44 Fair CLR 20.6 19.8 95% 76.38 0.0
02 05:55 Calm 11.27 Fair CLR 20.6 19.8 95% 76.38 0.0
02 05:35 Calm 6.44 Fair CLR 20.2 19.4 95% 76.38 0.0
02 05:15 Calm 11.27 Fair CLR 21.4 20.5 95% 76.35 0.0
02 04:55 Calm 16.09 Fair CLR 21.2 20.4 95% 76.35 0.0
02 04:35 Calm 8.05 Fair CLR 21.3 20.5 95% 76.35 0.0
02 04:15 Calm 4.83 Fair CLR 21.5 20.6 95% 76.35 0.0
02 03:55 Calm 11.27 Fair CLR 21.6 20.7 95% 76.35 0.0
02 03:35 Calm 16.09 Fair CLR 22 20.8 93% 76.35 0.0
02 03:15 Calm 16.09 Fair CLR 21.7 20.7 94% 76.35 0.0
02 02:55 Calm 11.27 Fair CLR 21.4 20.1 92% 76.35 0.0
02 02:35 Calm 16.09 Fair CLR 22.1 20.3 90% 76.35 0.0
02 02:15 Calm 16.09 Fair CLR 22.3 20.9 92% 76.35 0.0
02 01:55 Calm 16.09 Fair CLR 22.4 21 27.6 22.4 92% 76.35 0.0
02 01:35 Calm 16.09 Fair CLR 22.5 21 91% 76.35 0.0
02 01:15 Calm 16.09 Fair CLR 22.9 21 89% 76.33 0.0
02 00:55 Calm 16.09 Fair CLR 22.8 20.7 88% 76.33 0.0
02 00:35 Calm 16.09 Fair CLR 22.6 21 91% 76.3 0.0
02 00:15 Calm 16.09 Fair CLR 23 21.1 89% 76.3 0.0
01 23:55 Calm 16.09 Fair CLR 23.3 21 87% 76.3 0.0
01 23:35 Calm 16.09 Fair CLR 23.9 20.9 83% 24 76.3 0.0
01 23:15 Calm 16.09 Fair CLR 23.9 21 84% 24 76.3 0.0
01 22:55 Calm 16.09 Fair CLR 24.1 22.1 89% 24 76.3 0.0
01 22:35 Calm 16.09 Fair CLR 24.2 21.9 87% 24 76.28 0.0
01 22:15 Calm 16.09 Fair CLR 24.3 21.2 83% 25 76.28 0.0
01 21:55 Calm 16.09 Fair CLR 25 21.1 79% 26 76.28 0.0
01 21:35 Calm 16.09 Fair CLR 24.9 21.5 81% 26 76.25 0.0
01 21:15 Calm 16.09 Fair CLR 26 22.4 81% 28 76.25 0.0
01 20:55 Calm 16.09 Fair CLR 26.6 21.4 73% 28 76.23 0.0
01 20:35 Calm 16.09 Fair CLR 27.4 20.8 67% 29 76.2 0.0
01 20:15 Calm 16.09 Fair CLR 27.1 22.3 75% 29 76.2 0.0
01 19:55 Calm 16.09 Fair CLR 28 22.5 36.4 28 72% 31 76.2 0.0
01 19:35 Calm 16.09 Fair CLR 30.1 21.1 59% 33 76.2 0.0
01 19:15 Calm 16.09 Fair CLR 31.4 18.9 47% 33 76.2 0.0
01 18:55 Calm 16.09 Fair CLR 33.6 19.1 42% 35 76.23 0.0
01 18:35 N 6 16.09 Fair CLR 34.6 17.7 37% 36 76.23 0.0
01 18:15 N 7 16.09 Fair CLR 35 16.7 34% 35 76.23 0.0
01 17:55 Calm 16.09 Fair CLR 35.6 16.5 32% 36 76.2 0.0
01 17:35 NW 7 16.09 Fair CLR 36 16.3 31% 36 76.2 0.0
01 17:15 NW 7 16.09 Fair CLR 35.9 16.7 32% 36 76.2 0.0
01 16:55 NW 13 16.09 Fair CLR 36.1 17.4 33% 37 76.23 0.0
01 16:35 N 6 16.09 Fair CLR 34.2 18.2 39% 35 76.25 0.0
01 16:15 N 7 16.09 Partly Cloudy SCT070 35.1 17.3 35% 36 76.25 0.0
01 15:55 N 7 16.09 Partly Cloudy SCT070 SCT080 36.2 17.7 33% 37 76.25 0.0
01 15:35 Calm 16.09 Partly Cloudy SCT080 34.7 17.4 36% 36 76.25 0.0
01 15:15 N 7 16.09 Partly Cloudy SCT070 35.9 18 35% 37 76.28 0.0
01 14:55 W 6 16.09 Mostly Cloudy BKN080 35.9 17.9 34% 37 76.3 0.0
01 14:35 Calm 16.09 Fair CLR 35.5 18.2 36% 37 76.3 0.0
01 14:15 NW 11 16.09 Fair CLR 35.6 19 38% 38 76.3 0.0
01 13:55 NE 9 16.09 Fair CLR 35.3 18 35.3 22.1 36% 37 76.33 0.0
01 13:35 NW 6 16.09 Fair CLR 34.6 17.8 37% 36 76.33 0.0
01 13:15 NW 7 16.09 Fair CLR 34.4 18.3 38% 36 76.35 0.0
01 12:55 NW 9 16.09 Fair CLR 33.8 18.3 40% 35 76.38 0.0
01 12:35 NW 13 16.09 Fair CLR 33.6 18.5 41% 35 76.38 0.0
01 12:15 N 11 16.09 Fair CLR 33 19.2 44% 35 76.4 0.0
01 11:55 W 6 16.09 Fair CLR 32.7 19.9 47% 35 76.43 0.0
01 11:35 N 7 16.09 Fair CLR 32.1 20.9 52% 35 76.43 0.0
01 11:15 NW 9 16.09 Fair CLR 31.4 20.4 52% 34 76.45 0.0
01 10:55 N 11 16.09 Fair CLR 30.9 21.1 56% 34 76.45 0.0
01 10:35 NW 7 16.09 Fair CLR 29.9 21.5 61% 33 76.48 0.0
01 10:15 Calm 16.09 Fair CLR 28.8 22.2 68% 32 76.48 0.0
01 09:55 NW 9 16.09 Fair CLR 27.6 21.6 70% 30 76.48 0.0
01 09:35 NW 6 16.09 Fair CLR 26.5 21.9 76% 28 76.48 0.0
01 09:15 NW 6 16.09 Fair CLR 25.5 21.6 79% 27 76.48 0.0
01 08:55 NW 6 16.09 Fair CLR 24.1 21.5 85% 24 76.48 0.0
01 08:35 W 6 16.09 Fair CLR 23.3 22.4 95% 76.48 0.0
01 08:15 Calm 16.09 Fair CLR 22.7 21.9 95% 76.45 0.0
01 07:55 Calm 8.05 Fair CLR 21.8 21.1 22.4 20.2 96% 76.45 0.0
01 07:35 Calm 2.41 Sky Obscured VV007 21.1 20.3 95% 76.43 0.0
01 07:15 Calm 4.83 Fair CLR 20.4 19.6 95% 76.4 0.0
Date Time (edt) Wind (kph) Vis. (km) Weather Sky Cond. Air Dwpt Max. Min. Relative Humidity Wind Chill (°C) Heat Index (°C) altimeter (cm) sea level (mb) 1 hr 3 hr 6 hr
6 hour
Temperature (ºC) Pressure Precipitation (cm)